sensor_id;sensor_type;location;lat;lon;timestamp;P1;durP1;ratioP1;P2;durP2;ratioP2
62580;SDS011;48640;48.770;9.148;2022-07-22T00:00:48;7.25;;;4.57;;
62580;SDS011;48640;48.770;9.148;2022-07-22T00:03:15;6.00;;;3.95;;
62580;SDS011;48640;48.770;9.148;2022-07-22T00:05:42;6.25;;;4.50;;
62580;SDS011;48640;48.770;9.148;2022-07-22T00:08:08;5.13;;;3.90;;
62580;SDS011;48640;48.770;9.148;2022-07-22T00:10:35;5.38;;;3.95;;
62580;SDS011;48640;48.770;9.148;2022-07-22T00:13:02;6.63;;;4.35;;
62580;SDS011;48640;48.770;9.148;2022-07-22T00:15:29;5.90;;;4.00;;
62580;SDS011;48640;48.770;9.148;2022-07-22T00:17:57;6.43;;;4.30;;
62580;SDS011;48640;48.770;9.148;2022-07-22T00:20:24;7.40;;;4.10;;
62580;SDS011;48640;48.770;9.148;2022-07-22T00:22:51;5.78;;;3.88;;
62580;SDS011;48640;48.770;9.148;2022-07-22T00:25:18;8.43;;;4.10;;
62580;SDS011;48640;48.770;9.148;2022-07-22T00:27:45;7.30;;;4.15;;
62580;SDS011;48640;48.770;9.148;2022-07-22T00:30:13;4.65;;;3.90;;
62580;SDS011;48640;48.770;9.148;2022-07-22T00:32:40;7.13;;;4.30;;
62580;SDS011;48640;48.770;9.148;2022-07-22T00:35:08;7.00;;;4.13;;
62580;SDS011;48640;48.770;9.148;2022-07-22T00:37:35;5.93;;;3.90;;
62580;SDS011;48640;48.770;9.148;2022-07-22T00:40:02;5.05;;;3.95;;
62580;SDS011;48640;48.770;9.148;2022-07-22T00:42:30;7.13;;;4.40;;
62580;SDS011;48640;48.770;9.148;2022-07-22T00:44:57;5.30;;;3.85;;
62580;SDS011;48640;48.770;9.148;2022-07-22T00:47:24;8.25;;;4.78;;
62580;SDS011;48640;48.770;9.148;2022-07-22T00:49:50;7.07;;;4.47;;
62580;SDS011;48640;48.770;9.148;2022-07-22T00:52:19;6.63;;;4.85;;
62580;SDS011;48640;48.770;9.148;2022-07-22T00:54:46;6.43;;;4.30;;
62580;SDS011;48640;48.770;9.148;2022-07-22T00:57:13;6.32;;;4.25;;
62580;SDS011;48640;48.770;9.148;2022-07-22T00:59:40;8.32;;;4.38;;
62580;SDS011;48640;48.770;9.148;2022-07-22T01:02:07;5.78;;;4.55;;
62580;SDS011;48640;48.770;9.148;2022-07-22T01:04:35;6.90;;;4.75;;
62580;SDS011;48640;48.770;9.148;2022-07-22T01:07:02;9.32;;;4.30;;
62580;SDS011;48640;48.770;9.148;2022-07-22T01:09:30;6.75;;;4.38;;
62580;SDS011;48640;48.770;9.148;2022-07-22T01:11:58;6.23;;;4.13;;
62580;SDS011;48640;48.770;9.148;2022-07-22T01:14:25;6.07;;;4.55;;
62580;SDS011;48640;48.770;9.148;2022-07-22T01:16:51;8.40;;;4.80;;
62580;SDS011;48640;48.770;9.148;2022-07-22T01:19:18;7.50;;;4.78;;
62580;SDS011;48640;48.770;9.148;2022-07-22T01:21:46;7.13;;;4.80;;
62580;SDS011;48640;48.770;9.148;2022-07-22T01:24:13;7.68;;;4.82;;
62580;SDS011;48640;48.770;9.148;2022-07-22T01:26:40;6.47;;;4.88;;
62580;SDS011;48640;48.770;9.148;2022-07-22T01:29:07;7.38;;;5.15;;
62580;SDS011;48640;48.770;9.148;2022-07-22T01:31:34;5.65;;;4.68;;
62580;SDS011;48640;48.770;9.148;2022-07-22T01:34:01;4.93;;;4.18;;
62580;SDS011;48640;48.770;9.148;2022-07-22T01:36:28;7.03;;;4.60;;
62580;SDS011;48640;48.770;9.148;2022-07-22T01:38:56;8.48;;;4.88;;
62580;SDS011;48640;48.770;9.148;2022-07-22T01:41:23;5.85;;;4.53;;
62580;SDS011;48640;48.770;9.148;2022-07-22T01:43:50;7.47;;;4.95;;
62580;SDS011;48640;48.770;9.148;2022-07-22T01:46:16;6.65;;;4.53;;
62580;SDS011;48640;48.770;9.148;2022-07-22T01:48:43;6.63;;;4.57;;
62580;SDS011;48640;48.770;9.148;2022-07-22T01:51:11;6.75;;;4.47;;
62580;SDS011;48640;48.770;9.148;2022-07-22T01:53:37;6.50;;;4.70;;
62580;SDS011;48640;48.770;9.148;2022-07-22T01:56:06;5.50;;;4.47;;
62580;SDS011;48640;48.770;9.148;2022-07-22T01:58:33;5.13;;;4.47;;
62580;SDS011;48640;48.770;9.148;2022-07-22T02:01:00;7.10;;;4.93;;
62580;SDS011;48640;48.770;9.148;2022-07-22T02:03:27;8.07;;;5.15;;
62580;SDS011;48640;48.770;9.148;2022-07-22T02:05:54;5.70;;;4.75;;
62580;SDS011;48640;48.770;9.148;2022-07-22T02:08:20;6.68;;;5.40;;
62580;SDS011;48640;48.770;9.148;2022-07-22T02:10:47;7.93;;;5.85;;
62580;SDS011;48640;48.770;9.148;2022-07-22T02:13:15;8.82;;;6.90;;
62580;SDS011;48640;48.770;9.148;2022-07-22T02:15:43;9.57;;;5.57;;
62580;SDS011;48640;48.770;9.148;2022-07-22T02:18:10;6.65;;;5.03;;
62580;SDS011;48640;48.770;9.148;2022-07-22T02:20:38;6.17;;;4.57;;
62580;SDS011;48640;48.770;9.148;2022-07-22T02:23:05;6.88;;;5.05;;
62580;SDS011;48640;48.770;9.148;2022-07-22T02:25:33;5.78;;;4.90;;
62580;SDS011;48640;48.770;9.148;2022-07-22T02:28:00;6.28;;;4.38;;
62580;SDS011;48640;48.770;9.148;2022-07-22T02:30:29;8.32;;;5.18;;
62580;SDS011;48640;48.770;9.148;2022-07-22T02:32:56;6.32;;;5.10;;
62580;SDS011;48640;48.770;9.148;2022-07-22T02:35:22;7.65;;;5.65;;
62580;SDS011;48640;48.770;9.148;2022-07-22T02:37:49;8.77;;;6.00;;
62580;SDS011;48640;48.770;9.148;2022-07-22T02:40:17;6.47;;;5.72;;
62580;SDS011;48640;48.770;9.148;2022-07-22T02:42:44;6.22;;;5.00;;
62580;SDS011;48640;48.770;9.148;2022-07-22T02:45:10;5.70;;;5.00;;
62580;SDS011;48640;48.770;9.148;2022-07-22T02:47:45;6.25;;;4.97;;
62580;SDS011;48640;48.770;9.148;2022-07-22T02:50:13;10.43;;;6.03;;
62580;SDS011;48640;48.770;9.148;2022-07-22T02:52:40;8.05;;;6.43;;
62580;SDS011;48640;48.770;9.148;2022-07-22T02:55:07;9.55;;;5.90;;
62580;SDS011;48640;48.770;9.148;2022-07-22T02:57:34;6.85;;;5.70;;
62580;SDS011;48640;48.770;9.148;2022-07-22T03:00:03;6.75;;;6.05;;
62580;SDS011;48640;48.770;9.148;2022-07-22T03:02:30;6.13;;;5.30;;
62580;SDS011;48640;48.770;9.148;2022-07-22T03:04:59;7.68;;;5.75;;
62580;SDS011;48640;48.770;9.148;2022-07-22T03:07:25;8.25;;;6.10;;
62580;SDS011;48640;48.770;9.148;2022-07-22T03:09:52;7.55;;;5.82;;
62580;SDS011;48640;48.770;9.148;2022-07-22T03:12:19;8.07;;;6.10;;
62580;SDS011;48640;48.770;9.148;2022-07-22T03:14:46;8.40;;;6.20;;
62580;SDS011;48640;48.770;9.148;2022-07-22T03:17:13;9.05;;;7.07;;
62580;SDS011;48640;48.770;9.148;2022-07-22T03:19:40;10.50;;;7.57;;
62580;SDS011;48640;48.770;9.148;2022-07-22T03:22:08;8.30;;;7.05;;
62580;SDS011;48640;48.770;9.148;2022-07-22T03:24:35;9.82;;;6.90;;
62580;SDS011;48640;48.770;9.148;2022-07-22T03:27:01;7.03;;;6.32;;
62580;SDS011;48640;48.770;9.148;2022-07-22T03:29:28;13.80;;;6.88;;
62580;SDS011;48640;48.770;9.148;2022-07-22T03:31:55;7.90;;;6.43;;
62580;SDS011;48640;48.770;9.148;2022-07-22T03:34:22;8.23;;;7.00;;
62580;SDS011;48640;48.770;9.148;2022-07-22T03:36:49;9.23;;;6.28;;
62580;SDS011;48640;48.770;9.148;2022-07-22T03:39:17;8.45;;;6.65;;
62580;SDS011;48640;48.770;9.148;2022-07-22T03:41:44;10.38;;;6.88;;
62580;SDS011;48640;48.770;9.148;2022-07-22T03:44:11;7.55;;;6.72;;
62580;SDS011;48640;48.770;9.148;2022-07-22T03:46:38;7.80;;;7.00;;
62580;SDS011;48640;48.770;9.148;2022-07-22T03:49:05;9.55;;;6.75;;
62580;SDS011;48640;48.770;9.148;2022-07-22T03:51:31;9.05;;;6.93;;
62580;SDS011;48640;48.770;9.148;2022-07-22T03:53:58;10.98;;;7.13;;
62580;SDS011;48640;48.770;9.148;2022-07-22T03:56:26;11.23;;;8.73;;
62580;SDS011;48640;48.770;9.148;2022-07-22T03:58:53;9.57;;;7.75;;
62580;SDS011;48640;48.770;9.148;2022-07-22T04:01:20;8.48;;;6.85;;
62580;SDS011;48640;48.770;9.148;2022-07-22T04:03:47;7.63;;;6.70;;
62580;SDS011;48640;48.770;9.148;2022-07-22T04:06:14;10.30;;;7.05;;
62580;SDS011;48640;48.770;9.148;2022-07-22T04:08:41;10.25;;;6.35;;
62580;SDS011;48640;48.770;9.148;2022-07-22T04:11:08;8.48;;;6.85;;
62580;SDS011;48640;48.770;9.148;2022-07-22T04:13:36;10.05;;;7.07;;
62580;SDS011;48640;48.770;9.148;2022-07-22T04:16:03;7.82;;;6.50;;
62580;SDS011;48640;48.770;9.148;2022-07-22T04:18:30;8.95;;;6.70;;
62580;SDS011;48640;48.770;9.148;2022-07-22T04:20:57;11.65;;;7.72;;
62580;SDS011;48640;48.770;9.148;2022-07-22T04:23:24;8.48;;;6.80;;
62580;SDS011;48640;48.770;9.148;2022-07-22T04:25:51;8.35;;;7.38;;
62580;SDS011;48640;48.770;9.148;2022-07-22T04:28:18;8.90;;;6.50;;
62580;SDS011;48640;48.770;9.148;2022-07-22T04:30:46;8.30;;;6.85;;
62580;SDS011;48640;48.770;9.148;2022-07-22T04:33:13;8.05;;;6.30;;
62580;SDS011;48640;48.770;9.148;2022-07-22T04:35:40;8.10;;;6.50;;
62580;SDS011;48640;48.770;9.148;2022-07-22T04:38:08;9.05;;;6.30;;
62580;SDS011;48640;48.770;9.148;2022-07-22T04:40:35;8.68;;;6.40;;
62580;SDS011;48640;48.770;9.148;2022-07-22T04:43:02;7.93;;;6.28;;
62580;SDS011;48640;48.770;9.148;2022-07-22T04:45:29;10.35;;;7.45;;
62580;SDS011;48640;48.770;9.148;2022-07-22T04:47:57;9.32;;;7.28;;
62580;SDS011;48640;48.770;9.148;2022-07-22T04:50:24;11.30;;;6.93;;
62580;SDS011;48640;48.770;9.148;2022-07-22T04:52:51;7.80;;;5.95;;
62580;SDS011;48640;48.770;9.148;2022-07-22T04:55:17;6.97;;;6.13;;
62580;SDS011;48640;48.770;9.148;2022-07-22T04:57:45;8.90;;;6.05;;
62580;SDS011;48640;48.770;9.148;2022-07-22T05:00:12;10.73;;;6.95;;
62580;SDS011;48640;48.770;9.148;2022-07-22T05:02:40;10.15;;;7.05;;
62580;SDS011;48640;48.770;9.148;2022-07-22T05:05:09;9.85;;;7.15;;
62580;SDS011;48640;48.770;9.148;2022-07-22T05:07:36;11.07;;;7.13;;
62580;SDS011;48640;48.770;9.148;2022-07-22T05:10:03;8.88;;;6.57;;
62580;SDS011;48640;48.770;9.148;2022-07-22T05:12:30;9.52;;;7.53;;
62580;SDS011;48640;48.770;9.148;2022-07-22T05:14:57;8.65;;;6.22;;
62580;SDS011;48640;48.770;9.148;2022-07-22T05:17:24;8.40;;;6.25;;
62580;SDS011;48640;48.770;9.148;2022-07-22T05:19:51;8.48;;;6.60;;
62580;SDS011;48640;48.770;9.148;2022-07-22T05:22:19;9.35;;;7.00;;
62580;SDS011;48640;48.770;9.148;2022-07-22T05:24:46;8.40;;;6.60;;
62580;SDS011;48640;48.770;9.148;2022-07-22T05:27:12;7.93;;;6.32;;
62580;SDS011;48640;48.770;9.148;2022-07-22T05:29:39;8.55;;;6.20;;
62580;SDS011;48640;48.770;9.148;2022-07-22T05:32:06;7.85;;;6.57;;
62580;SDS011;48640;48.770;9.148;2022-07-22T05:34:33;8.63;;;5.80;;
62580;SDS011;48640;48.770;9.148;2022-07-22T05:37:00;7.93;;;5.65;;
62580;SDS011;48640;48.770;9.148;2022-07-22T05:39:28;8.25;;;6.38;;
62580;SDS011;48640;48.770;9.148;2022-07-22T05:41:55;7.85;;;6.68;;
62580;SDS011;48640;48.770;9.148;2022-07-22T05:44:22;7.50;;;6.63;;
62580;SDS011;48640;48.770;9.148;2022-07-22T05:46:49;9.05;;;6.38;;
62580;SDS011;48640;48.770;9.148;2022-07-22T05:49:16;9.02;;;7.53;;
62580;SDS011;48640;48.770;9.148;2022-07-22T05:51:43;10.23;;;6.90;;
62580;SDS011;48640;48.770;9.148;2022-07-22T05:54:10;8.52;;;6.15;;
62580;SDS011;48640;48.770;9.148;2022-07-22T05:56:38;10.63;;;7.35;;
62580;SDS011;48640;48.770;9.148;2022-07-22T05:59:05;9.85;;;6.47;;
62580;SDS011;48640;48.770;9.148;2022-07-22T06:01:31;7.78;;;6.05;;
62580;SDS011;48640;48.770;9.148;2022-07-22T06:03:58;7.10;;;6.10;;
62580;SDS011;48640;48.770;9.148;2022-07-22T06:06:25;7.28;;;5.63;;
62580;SDS011;48640;48.770;9.148;2022-07-22T06:08:52;6.80;;;6.03;;
62580;SDS011;48640;48.770;9.148;2022-07-22T06:11:19;8.38;;;6.30;;
62580;SDS011;48640;48.770;9.148;2022-07-22T06:13:47;7.20;;;5.78;;
62580;SDS011;48640;48.770;9.148;2022-07-22T06:16:14;7.43;;;6.22;;
62580;SDS011;48640;48.770;9.148;2022-07-22T06:18:40;7.90;;;6.82;;
62580;SDS011;48640;48.770;9.148;2022-07-22T06:21:07;7.47;;;6.18;;
62580;SDS011;48640;48.770;9.148;2022-07-22T06:23:34;7.03;;;6.13;;
62580;SDS011;48640;48.770;9.148;2022-07-22T06:26:01;9.32;;;6.50;;
62580;SDS011;48640;48.770;9.148;2022-07-22T06:28:28;6.80;;;5.70;;
62580;SDS011;48640;48.770;9.148;2022-07-22T06:30:56;8.40;;;6.22;;
62580;SDS011;48640;48.770;9.148;2022-07-22T06:33:23;8.02;;;5.65;;
62580;SDS011;48640;48.770;9.148;2022-07-22T06:35:49;7.82;;;6.03;;
62580;SDS011;48640;48.770;9.148;2022-07-22T06:38:16;7.72;;;6.45;;
62580;SDS011;48640;48.770;9.148;2022-07-22T06:40:43;8.90;;;6.15;;
62580;SDS011;48640;48.770;9.148;2022-07-22T06:43:10;7.68;;;6.18;;
62580;SDS011;48640;48.770;9.148;2022-07-22T06:45:37;8.85;;;5.85;;
62580;SDS011;48640;48.770;9.148;2022-07-22T06:48:05;9.80;;;6.70;;
62580;SDS011;48640;48.770;9.148;2022-07-22T06:50:32;8.50;;;6.57;;
62580;SDS011;48640;48.770;9.148;2022-07-22T06:52:59;7.25;;;6.15;;
62580;SDS011;48640;48.770;9.148;2022-07-22T06:55:26;8.32;;;7.15;;
62580;SDS011;48640;48.770;9.148;2022-07-22T06:57:53;7.43;;;5.88;;
62580;SDS011;48640;48.770;9.148;2022-07-22T07:00:20;21.40;;;6.95;;
62580;SDS011;48640;48.770;9.148;2022-07-22T07:02:46;9.55;;;6.88;;
62580;SDS011;48640;48.770;9.148;2022-07-22T07:05:15;9.18;;;6.38;;
62580;SDS011;48640;48.770;9.148;2022-07-22T07:07:41;11.02;;;6.70;;
62580;SDS011;48640;48.770;9.148;2022-07-22T07:10:08;8.07;;;6.45;;
62580;SDS011;48640;48.770;9.148;2022-07-22T07:12:37;8.02;;;7.03;;
62580;SDS011;48640;48.770;9.148;2022-07-22T07:15:05;7.75;;;5.72;;
62580;SDS011;48640;48.770;9.148;2022-07-22T07:17:32;8.20;;;6.55;;
62580;SDS011;48640;48.770;9.148;2022-07-22T07:19:59;8.48;;;6.63;;
62580;SDS011;48640;48.770;9.148;2022-07-22T07:22:27;9.63;;;7.28;;
62580;SDS011;48640;48.770;9.148;2022-07-22T07:24:54;8.00;;;6.37;;
62580;SDS011;48640;48.770;9.148;2022-07-22T07:27:21;10.32;;;7.28;;
62580;SDS011;48640;48.770;9.148;2022-07-22T07:29:49;9.32;;;6.72;;
62580;SDS011;48640;48.770;9.148;2022-07-22T07:32:16;8.70;;;7.13;;
62580;SDS011;48640;48.770;9.148;2022-07-22T07:34:42;9.63;;;7.50;;
62580;SDS011;48640;48.770;9.148;2022-07-22T07:37:09;8.60;;;6.90;;
62580;SDS011;48640;48.770;9.148;2022-07-22T07:39:38;9.15;;;6.75;;
62580;SDS011;48640;48.770;9.148;2022-07-22T07:42:05;9.90;;;7.47;;
62580;SDS011;48640;48.770;9.148;2022-07-22T07:44:32;8.27;;;5.78;;
62580;SDS011;48640;48.770;9.148;2022-07-22T07:46:59;8.57;;;6.95;;
62580;SDS011;48640;48.770;9.148;2022-07-22T07:49:26;11.50;;;8.23;;
62580;SDS011;48640;48.770;9.148;2022-07-22T07:51:52;7.75;;;6.93;;
62580;SDS011;48640;48.770;9.148;2022-07-22T07:54:19;9.32;;;6.63;;
62580;SDS011;48640;48.770;9.148;2022-07-22T07:56:47;10.60;;;7.13;;
62580;SDS011;48640;48.770;9.148;2022-07-22T07:59:14;14.40;;;7.23;;
62580;SDS011;48640;48.770;9.148;2022-07-22T08:01:42;9.73;;;7.25;;
62580;SDS011;48640;48.770;9.148;2022-07-22T08:04:08;7.82;;;6.97;;
62580;SDS011;48640;48.770;9.148;2022-07-22T08:06:35;8.13;;;6.45;;
62580;SDS011;48640;48.770;9.148;2022-07-22T08:09:03;8.93;;;6.95;;
62580;SDS011;48640;48.770;9.148;2022-07-22T08:11:29;7.30;;;6.00;;
62580;SDS011;48640;48.770;9.148;2022-07-22T08:13:58;8.43;;;6.55;;
62580;SDS011;48640;48.770;9.148;2022-07-22T08:16:24;7.05;;;6.15;;
62580;SDS011;48640;48.770;9.148;2022-07-22T08:18:51;7.40;;;5.68;;
62580;SDS011;48640;48.770;9.148;2022-07-22T08:21:18;7.72;;;6.53;;
62580;SDS011;48640;48.770;9.148;2022-07-22T08:23:45;7.32;;;6.38;;
62580;SDS011;48640;48.770;9.148;2022-07-22T08:26:12;9.23;;;6.15;;
62580;SDS011;48640;48.770;9.148;2022-07-22T08:28:39;7.65;;;6.28;;
62580;SDS011;48640;48.770;9.148;2022-07-22T08:31:07;13.25;;;5.75;;
62580;SDS011;48640;48.770;9.148;2022-07-22T08:33:34;9.18;;;6.22;;
62580;SDS011;48640;48.770;9.148;2022-07-22T08:36:00;8.88;;;5.85;;
62580;SDS011;48640;48.770;9.148;2022-07-22T08:38:27;10.80;;;7.13;;
62580;SDS011;48640;48.770;9.148;2022-07-22T08:40:54;5.78;;;5.07;;
62580;SDS011;48640;48.770;9.148;2022-07-22T08:43:22;9.43;;;6.43;;
62580;SDS011;48640;48.770;9.148;2022-07-22T08:45:48;8.02;;;5.45;;
62580;SDS011;48640;48.770;9.148;2022-07-22T08:48:17;9.23;;;6.25;;
62580;SDS011;48640;48.770;9.148;2022-07-22T08:50:44;8.95;;;6.47;;
62580;SDS011;48640;48.770;9.148;2022-07-22T08:53:11;7.30;;;5.55;;
62580;SDS011;48640;48.770;9.148;2022-07-22T08:55:41;7.32;;;4.95;;
62580;SDS011;48640;48.770;9.148;2022-07-22T08:58:09;10.93;;;6.18;;
62580;SDS011;48640;48.770;9.148;2022-07-22T09:00:36;7.63;;;6.07;;
62580;SDS011;48640;48.770;9.148;2022-07-22T09:03:17;8.10;;;6.00;;
62580;SDS011;48640;48.770;9.148;2022-07-22T09:05:47;8.23;;;6.68;;
62580;SDS011;48640;48.770;9.148;2022-07-22T09:08:15;9.23;;;6.25;;
62580;SDS011;48640;48.770;9.148;2022-07-22T09:10:42;7.85;;;6.30;;
62580;SDS011;48640;48.770;9.148;2022-07-22T09:13:09;7.93;;;6.38;;
62580;SDS011;48640;48.770;9.148;2022-07-22T09:15:37;6.90;;;5.93;;
62580;SDS011;48640;48.770;9.148;2022-07-22T09:18:11;9.68;;;5.22;;
62580;SDS011;48640;48.770;9.148;2022-07-22T09:20:39;6.72;;;5.10;;
62580;SDS011;48640;48.770;9.148;2022-07-22T09:25:37;8.48;;;5.78;;
62580;SDS011;48640;48.770;9.148;2022-07-22T09:28:12;8.38;;;6.43;;
62580;SDS011;48640;48.770;9.148;2022-07-22T09:30:45;6.15;;;4.95;;
62580;SDS011;48640;48.770;9.148;2022-07-22T09:33:14;7.57;;;6.32;;
62580;SDS011;48640;48.770;9.148;2022-07-22T09:35:43;6.03;;;5.07;;
62580;SDS011;48640;48.770;9.148;2022-07-22T09:38:12;8.65;;;5.53;;
62580;SDS011;48640;48.770;9.148;2022-07-22T09:43:07;6.22;;;5.63;;
62580;SDS011;48640;48.770;9.148;2022-07-22T09:45:37;9.40;;;6.10;;
62580;SDS011;48640;48.770;9.148;2022-07-22T09:48:11;7.70;;;5.90;;
62580;SDS011;48640;48.770;9.148;2022-07-22T09:50:37;6.30;;;5.10;;
62580;SDS011;48640;48.770;9.148;2022-07-22T09:53:06;5.63;;;4.88;;
62580;SDS011;48640;48.770;9.148;2022-07-22T09:58:03;7.68;;;5.47;;
62580;SDS011;48640;48.770;9.148;2022-07-22T10:00:30;7.33;;;5.53;;
62580;SDS011;48640;48.770;9.148;2022-07-22T10:02:58;5.72;;;5.05;;
62580;SDS011;48640;48.770;9.148;2022-07-22T10:05:27;9.93;;;5.35;;
62580;SDS011;48640;48.770;9.148;2022-07-22T10:07:56;6.05;;;5.32;;
62580;SDS011;48640;48.770;9.148;2022-07-22T10:10:27;6.40;;;4.82;;
62580;SDS011;48640;48.770;9.148;2022-07-22T10:12:55;13.80;;;5.40;;
62580;SDS011;48640;48.770;9.148;2022-07-22T10:15:23;6.03;;;4.78;;
62580;SDS011;48640;48.770;9.148;2022-07-22T10:17:51;6.97;;;4.90;;
62580;SDS011;48640;48.770;9.148;2022-07-22T10:20:19;7.18;;;5.70;;
62580;SDS011;48640;48.770;9.148;2022-07-22T10:22:49;5.75;;;4.72;;
62580;SDS011;48640;48.770;9.148;2022-07-22T10:25:18;6.85;;;5.13;;
62580;SDS011;48640;48.770;9.148;2022-07-22T10:27:48;6.40;;;5.75;;
62580;SDS011;48640;48.770;9.148;2022-07-22T10:30:16;6.10;;;5.50;;
62580;SDS011;48640;48.770;9.148;2022-07-22T10:32:45;9.10;;;5.68;;
62580;SDS011;48640;48.770;9.148;2022-07-22T10:35:26;6.88;;;5.03;;
62580;SDS011;48640;48.770;9.148;2022-07-22T10:37:54;6.68;;;5.53;;
62580;SDS011;48640;48.770;9.148;2022-07-22T10:40:23;6.30;;;5.32;;
62580;SDS011;48640;48.770;9.148;2022-07-22T10:45:47;6.68;;;5.75;;
62580;SDS011;48640;48.770;9.148;2022-07-22T10:48:20;9.60;;;5.88;;
62580;SDS011;48640;48.770;9.148;2022-07-22T10:50:50;7.05;;;5.05;;
62580;SDS011;48640;48.770;9.148;2022-07-22T10:53:38;6.00;;;4.88;;
62580;SDS011;48640;48.770;9.148;2022-07-22T10:56:11;7.07;;;5.50;;
62580;SDS011;48640;48.770;9.148;2022-07-22T11:01:34;5.80;;;4.78;;
62580;SDS011;48640;48.770;9.148;2022-07-22T11:04:09;6.47;;;4.95;;
62580;SDS011;48640;48.770;9.148;2022-07-22T11:06:38;8.13;;;5.50;;
62580;SDS011;48640;48.770;9.148;2022-07-22T11:09:06;8.07;;;5.22;;
62580;SDS011;48640;48.770;9.148;2022-07-22T11:11:36;5.25;;;4.75;;
62580;SDS011;48640;48.770;9.148;2022-07-22T11:14:13;5.30;;;4.80;;
62580;SDS011;48640;48.770;9.148;2022-07-22T11:16:46;12.35;;;5.05;;
62580;SDS011;48640;48.770;9.148;2022-07-22T11:19:14;6.50;;;5.38;;
62580;SDS011;48640;48.770;9.148;2022-07-22T11:21:48;5.95;;;5.35;;
62580;SDS011;48640;48.770;9.148;2022-07-22T11:24:17;7.50;;;5.07;;
62580;SDS011;48640;48.770;9.148;2022-07-22T11:26:46;6.38;;;5.20;;
62580;SDS011;48640;48.770;9.148;2022-07-22T11:29:17;6.70;;;5.05;;
62580;SDS011;48640;48.770;9.148;2022-07-22T11:31:49;9.93;;;5.63;;
62580;SDS011;48640;48.770;9.148;2022-07-22T11:34:16;6.18;;;5.57;;
62580;SDS011;48640;48.770;9.148;2022-07-22T11:36:45;5.78;;;4.63;;
62580;SDS011;48640;48.770;9.148;2022-07-22T11:39:13;4.78;;;4.28;;
62580;SDS011;48640;48.770;9.148;2022-07-22T11:41:44;5.03;;;4.55;;
62580;SDS011;48640;48.770;9.148;2022-07-22T11:44:11;6.20;;;4.30;;
62580;SDS011;48640;48.770;9.148;2022-07-22T11:46:40;4.13;;;3.72;;
62580;SDS011;48640;48.770;9.148;2022-07-22T11:49:08;6.13;;;4.25;;
62580;SDS011;48640;48.770;9.148;2022-07-22T11:51:38;5.00;;;4.05;;
62580;SDS011;48640;48.770;9.148;2022-07-22T11:54:05;6.72;;;4.72;;
62580;SDS011;48640;48.770;9.148;2022-07-22T11:56:33;6.00;;;4.45;;
62580;SDS011;48640;48.770;9.148;2022-07-22T11:59:01;5.32;;;4.65;;
62580;SDS011;48640;48.770;9.148;2022-07-22T12:01:31;4.43;;;4.03;;
62580;SDS011;48640;48.770;9.148;2022-07-22T12:04:01;5.60;;;4.45;;
62580;SDS011;48640;48.770;9.148;2022-07-22T12:06:30;7.13;;;4.72;;
62580;SDS011;48640;48.770;9.148;2022-07-22T12:09:03;5.45;;;4.32;;
62580;SDS011;48640;48.770;9.148;2022-07-22T12:11:32;7.15;;;5.05;;
62580;SDS011;48640;48.770;9.148;2022-07-22T12:14:04;6.20;;;4.38;;
62580;SDS011;48640;48.770;9.148;2022-07-22T12:16:32;7.38;;;4.13;;
62580;SDS011;48640;48.770;9.148;2022-07-22T12:19:03;5.60;;;4.22;;
62580;SDS011;48640;48.770;9.148;2022-07-22T12:21:31;7.20;;;4.18;;
62580;SDS011;48640;48.770;9.148;2022-07-22T12:24:00;7.53;;;4.60;;
62580;SDS011;48640;48.770;9.148;2022-07-22T12:26:38;7.50;;;4.43;;
62580;SDS011;48640;48.770;9.148;2022-07-22T12:29:20;10.35;;;4.90;;
62580;SDS011;48640;48.770;9.148;2022-07-22T12:31:49;4.97;;;4.15;;
62580;SDS011;48640;48.770;9.148;2022-07-22T12:34:29;6.97;;;4.32;;
62580;SDS011;48640;48.770;9.148;2022-07-22T12:37:10;6.32;;;4.40;;
62580;SDS011;48640;48.770;9.148;2022-07-22T12:39:39;5.03;;;4.38;;
62580;SDS011;48640;48.770;9.148;2022-07-22T12:42:17;10.77;;;5.10;;
62580;SDS011;48640;48.770;9.148;2022-07-22T12:44:51;4.45;;;3.92;;
62580;SDS011;48640;48.770;9.148;2022-07-22T12:47:41;5.85;;;4.45;;
62580;SDS011;48640;48.770;9.148;2022-07-22T12:50:22;4.87;;;4.07;;
62580;SDS011;48640;48.770;9.148;2022-07-22T12:52:51;4.55;;;3.90;;
62580;SDS011;48640;48.770;9.148;2022-07-22T12:55:19;5.28;;;3.97;;
62580;SDS011;48640;48.770;9.148;2022-07-22T12:57:46;5.32;;;4.53;;
62580;SDS011;48640;48.770;9.148;2022-07-22T13:00:16;6.43;;;4.05;;
62580;SDS011;48640;48.770;9.148;2022-07-22T13:02:43;5.50;;;3.83;;
62580;SDS011;48640;48.770;9.148;2022-07-22T13:05:10;6.20;;;4.85;;
62580;SDS011;48640;48.770;9.148;2022-07-22T13:07:39;6.63;;;4.35;;
62580;SDS011;48640;48.770;9.148;2022-07-22T13:10:06;5.88;;;4.40;;
62580;SDS011;48640;48.770;9.148;2022-07-22T13:12:34;8.15;;;4.28;;
62580;SDS011;48640;48.770;9.148;2022-07-22T13:15:01;4.65;;;3.70;;
62580;SDS011;48640;48.770;9.148;2022-07-22T13:17:28;4.40;;;4.00;;
62580;SDS011;48640;48.770;9.148;2022-07-22T13:19:55;7.30;;;4.10;;
62580;SDS011;48640;48.770;9.148;2022-07-22T13:22:22;4.93;;;4.35;;
62580;SDS011;48640;48.770;9.148;2022-07-22T13:24:50;4.72;;;3.75;;
62580;SDS011;48640;48.770;9.148;2022-07-22T13:27:16;6.25;;;4.18;;
62580;SDS011;48640;48.770;9.148;2022-07-22T13:29:43;8.52;;;4.25;;
62580;SDS011;48640;48.770;9.148;2022-07-22T13:32:10;5.00;;;4.10;;
62580;SDS011;48640;48.770;9.148;2022-07-22T13:34:37;4.78;;;4.00;;
62580;SDS011;48640;48.770;9.148;2022-07-22T13:37:04;6.43;;;3.92;;
62580;SDS011;48640;48.770;9.148;2022-07-22T13:39:31;5.80;;;4.47;;
62580;SDS011;48640;48.770;9.148;2022-07-22T13:41:59;4.75;;;3.75;;
62580;SDS011;48640;48.770;9.148;2022-07-22T13:44:26;5.45;;;4.53;;
62580;SDS011;48640;48.770;9.148;2022-07-22T13:46:52;5.40;;;4.00;;
62580;SDS011;48640;48.770;9.148;2022-07-22T13:51:48;6.78;;;4.20;;
62580;SDS011;48640;48.770;9.148;2022-07-22T13:54:16;7.13;;;5.05;;
62580;SDS011;48640;48.770;9.148;2022-07-22T13:56:43;7.72;;;4.30;;
62580;SDS011;48640;48.770;9.148;2022-07-22T13:59:13;6.40;;;4.55;;
62580;SDS011;48640;48.770;9.148;2022-07-22T14:01:40;7.40;;;4.10;;
62580;SDS011;48640;48.770;9.148;2022-07-22T14:04:07;6.00;;;4.20;;
62580;SDS011;48640;48.770;9.148;2022-07-22T14:06:34;4.78;;;3.78;;
62580;SDS011;48640;48.770;9.148;2022-07-22T14:09:01;4.20;;;3.58;;
62580;SDS011;48640;48.770;9.148;2022-07-22T14:11:29;4.90;;;3.75;;
62580;SDS011;48640;48.770;9.148;2022-07-22T14:13:56;5.88;;;4.07;;
62580;SDS011;48640;48.770;9.148;2022-07-22T14:16:24;6.90;;;3.90;;
62580;SDS011;48640;48.770;9.148;2022-07-22T14:19:00;4.82;;;4.05;;
62580;SDS011;48640;48.770;9.148;2022-07-22T14:21:27;5.47;;;3.72;;
62580;SDS011;48640;48.770;9.148;2022-07-22T14:23:54;5.18;;;4.00;;
62580;SDS011;48640;48.770;9.148;2022-07-22T14:26:21;3.97;;;3.58;;
62580;SDS011;48640;48.770;9.148;2022-07-22T14:28:48;4.68;;;4.05;;
62580;SDS011;48640;48.770;9.148;2022-07-22T14:31:16;6.05;;;4.40;;
62580;SDS011;48640;48.770;9.148;2022-07-22T14:33:45;6.93;;;4.05;;
62580;SDS011;48640;48.770;9.148;2022-07-22T14:36:12;9.07;;;4.43;;
62580;SDS011;48640;48.770;9.148;2022-07-22T14:38:40;4.22;;;3.83;;
62580;SDS011;48640;48.770;9.148;2022-07-22T14:41:07;5.40;;;3.75;;
62580;SDS011;48640;48.770;9.148;2022-07-22T14:43:34;6.03;;;4.20;;
62580;SDS011;48640;48.770;9.148;2022-07-22T14:46:02;7.18;;;4.88;;
62580;SDS011;48640;48.770;9.148;2022-07-22T14:48:29;4.28;;;3.75;;
62580;SDS011;48640;48.770;9.148;2022-07-22T14:50:57;5.00;;;3.90;;
62580;SDS011;48640;48.770;9.148;2022-07-22T14:53:24;5.90;;;4.25;;
62580;SDS011;48640;48.770;9.148;2022-07-22T14:55:51;6.88;;;3.55;;
62580;SDS011;48640;48.770;9.148;2022-07-22T14:58:18;4.43;;;3.97;;
62580;SDS011;48640;48.770;9.148;2022-07-22T15:00:45;4.82;;;3.63;;
62580;SDS011;48640;48.770;9.148;2022-07-22T15:03:12;5.25;;;3.78;;
62580;SDS011;48640;48.770;9.148;2022-07-22T15:05:39;5.45;;;4.03;;